sensor_id;sensor_type;location;lat;lon;timestamp;pressure;altitude;pressure_sealevel;temperature;humidity
60355;BME280;46198;51.464;-0.066;2023-05-22T00:00:31;101917.50;;;13.17;93.22
60355;BME280;46198;51.464;-0.066;2023-05-22T00:03:01;101921.06;;;13.17;93.66
60355;BME280;46198;51.464;-0.066;2023-05-22T00:05:31;101924.00;;;13.16;93.05
60355;BME280;46198;51.464;-0.066;2023-05-22T00:08:05;101923.56;;;13.12;94.85
60355;BME280;46198;51.464;-0.066;2023-05-22T00:10:37;101924.00;;;13.09;100.00
60355;BME280;46198;51.464;-0.066;2023-05-22T00:13:06;101932.16;;;13.02;100.00
60355;BME280;46198;51.464;-0.066;2023-05-22T00:15:34;101917.28;;;13.05;100.00
60355;BME280;46198;51.464;-0.066;2023-05-22T00:18:03;101926.28;;;13.05;99.28
60355;BME280;46198;51.464;-0.066;2023-05-22T00:20:33;101924.22;;;13.01;94.86
60355;BME280;46198;51.464;-0.066;2023-05-22T00:23:05;101924.63;;;12.98;100.00
60355;BME280;46198;51.464;-0.066;2023-05-22T00:25:37;101922.53;;;12.93;100.00
60355;BME280;46198;51.464;-0.066;2023-05-22T00:28:05;101916.88;;;12.95;100.00
60355;BME280;46198;51.464;-0.066;2023-05-22T00:30:35;101915.19;;;12.94;100.00
60355;BME280;46198;51.464;-0.066;2023-05-22T00:33:04;101912.69;;;12.92;100.00
60355;BME280;46198;51.464;-0.066;2023-05-22T00:35:34;101914.13;;;12.88;100.00
60355;BME280;46198;51.464;-0.066;2023-05-22T00:38:03;101908.91;;;12.86;100.00
60355;BME280;46198;51.464;-0.066;2023-05-22T00:40:32;101912.47;;;12.87;100.00
60355;BME280;46198;51.464;-0.066;2023-05-22T00:43:00;101908.28;;;12.84;100.00
60355;BME280;46198;51.464;-0.066;2023-05-22T00:45:34;101901.56;;;12.87;100.00
60355;BME280;46198;51.464;-0.066;2023-05-22T00:48:03;101904.69;;;12.91;100.00
60355;BME280;46198;51.464;-0.066;2023-05-22T00:50:32;101894.63;;;12.84;100.00
60355;BME280;46198;51.464;-0.066;2023-05-22T00:53:01;101896.50;;;12.77;100.00
60355;BME280;46198;51.464;-0.066;2023-05-22T00:55:30;101899.66;;;12.81;100.00
60355;BME280;46198;51.464;-0.066;2023-05-22T00:57:59;101897.78;;;12.81;100.00
60355;BME280;46198;51.464;-0.066;2023-05-22T01:00:34;101894.84;;;12.83;100.00
60355;BME280;46198;51.464;-0.066;2023-05-22T01:03:04;101895.66;;;12.83;100.00
60355;BME280;46198;51.464;-0.066;2023-05-22T01:05:34;101900.50;;;12.81;100.00
60355;BME280;46198;51.464;-0.066;2023-05-22T01:08:06;101892.97;;;12.77;100.00
60355;BME280;46198;51.464;-0.066;2023-05-22T01:10:36;101895.47;;;12.78;100.00
60355;BME280;46198;51.464;-0.066;2023-05-22T01:13:13;101892.13;;;12.76;100.00
60355;BME280;46198;51.464;-0.066;2023-05-22T01:15:55;101890.88;;;12.79;100.00
60355;BME280;46198;51.464;-0.066;2023-05-22T01:18:31;101892.13;;;12.76;100.00
60355;BME280;46198;51.464;-0.066;2023-05-22T01:21:06;101892.09;;;12.70;100.00
60355;BME280;46198;51.464;-0.066;2023-05-22T01:23:54;101886.66;;;12.70;100.00
60355;BME280;46198;51.464;-0.066;2023-05-22T01:26:31;101890.22;;;12.70;100.00
60355;BME280;46198;51.464;-0.066;2023-05-22T01:29:13;101886.44;;;12.71;100.00
60355;BME280;46198;51.464;-0.066;2023-05-22T01:31:45;101886.66;;;12.70;100.00
60355;BME280;46198;51.464;-0.066;2023-05-22T01:34:16;101888.78;;;12.68;100.00
60355;BME280;46198;51.464;-0.066;2023-05-22T01:36:47;101885.41;;;12.72;100.00
60355;BME280;46198;51.464;-0.066;2023-05-22T01:39:17;101891.28;;;12.76;100.00
60355;BME280;46198;51.464;-0.066;2023-05-22T01:41:45;101879.53;;;12.75;100.00
60355;BME280;46198;51.464;-0.066;2023-05-22T01:44:14;101882.06;;;12.77;100.00
60355;BME280;46198;51.464;-0.066;2023-05-22T01:46:44;101891.06;;;12.77;100.00
60355;BME280;46198;51.464;-0.066;2023-05-22T01:49:12;101881.22;;;12.76;100.00
60355;BME280;46198;51.464;-0.066;2023-05-22T01:51:48;101882.47;;;12.80;100.00
60355;BME280;46198;51.464;-0.066;2023-05-22T01:54:23;101874.94;;;12.82;100.00
60355;BME280;46198;51.464;-0.066;2023-05-22T01:56:55;101876.59;;;12.83;100.00
60355;BME280;46198;51.464;-0.066;2023-05-22T01:59:28;101871.56;;;12.80;100.00
60355;BME280;46198;51.464;-0.066;2023-05-22T02:02:03;101873.88;;;12.83;100.00
60355;BME280;46198;51.464;-0.066;2023-05-22T02:04:37;101871.59;;;12.87;100.00
60355;BME280;46198;51.464;-0.066;2023-05-22T02:07:06;101870.75;;;12.86;100.00
60355;BME280;46198;51.464;-0.066;2023-05-22T02:09:39;101863.41;;;12.87;100.00
60355;BME280;46198;51.464;-0.066;2023-05-22T02:12:11;101862.16;;;12.90;100.00
60355;BME280;46198;51.464;-0.066;2023-05-22T02:14:40;101865.72;;;12.90;100.00
60355;BME280;46198;51.464;-0.066;2023-05-22T02:17:11;101867.19;;;12.93;100.00
60355;BME280;46198;51.464;-0.066;2023-05-22T02:19:39;101864.44;;;12.93;100.00
60355;BME280;46198;51.464;-0.066;2023-05-22T02:22:07;101869.91;;;12.93;100.00
60355;BME280;46198;51.464;-0.066;2023-05-22T02:24:40;101861.06;;;12.97;100.00
60355;BME280;46198;51.464;-0.066;2023-05-22T02:27:09;101861.94;;;12.98;100.00
60355;BME280;46198;51.464;-0.066;2023-05-22T02:29:37;101862.13;;;12.96;100.00
60355;BME280;46198;51.464;-0.066;2023-05-22T02:32:06;101862.34;;;12.95;100.00
60355;BME280;46198;51.464;-0.066;2023-05-22T02:34:36;101859.22;;;12.98;100.00
60355;BME280;46198;51.464;-0.066;2023-05-22T02:37:04;101850.59;;;12.88;100.00
60355;BME280;46198;51.464;-0.066;2023-05-22T02:39:32;101861.50;;;12.88;100.00
60355;BME280;46198;51.464;-0.066;2023-05-22T02:42:01;101861.72;;;12.86;100.00
60355;BME280;46198;51.464;-0.066;2023-05-22T02:44:29;101856.47;;;12.84;100.00
60355;BME280;46198;51.464;-0.066;2023-05-22T02:46:58;101859.84;;;12.86;100.00
60355;BME280;46198;51.464;-0.066;2023-05-22T02:49:26;101858.56;;;12.89;100.00
60355;BME280;46198;51.464;-0.066;2023-05-22T02:51:55;101861.09;;;12.84;100.00
60355;BME280;46198;51.464;-0.066;2023-05-22T02:54:24;101859.84;;;12.86;100.00
60355;BME280;46198;51.464;-0.066;2023-05-22T02:56:55;101869.06;;;12.85;100.00
60355;BME280;46198;51.464;-0.066;2023-05-22T02:59:23;101863.41;;;12.87;100.00
60355;BME280;46198;51.464;-0.066;2023-05-22T03:01:52;101863.19;;;12.89;100.00
60355;BME280;46198;51.464;-0.066;2023-05-22T03:04:22;101866.97;;;12.88;100.00
60355;BME280;46198;51.464;-0.066;2023-05-22T03:06:51;101860.88;;;12.85;100.00
60355;BME280;46198;51.464;-0.066;2023-05-22T03:09:22;101864.84;;;12.83;100.00
60355;BME280;46198;51.464;-0.066;2023-05-22T03:11:50;101861.94;;;12.84;100.00
60355;BME280;46198;51.464;-0.066;2023-05-22T03:14:18;101861.94;;;12.84;100.00
60355;BME280;46198;51.464;-0.066;2023-05-22T03:16:46;101856.06;;;12.88;100.00
60355;BME280;46198;51.464;-0.066;2023-05-22T03:19:15;101856.06;;;12.88;100.00
60355;BME280;46198;51.464;-0.066;2023-05-22T03:21:43;101856.47;;;12.91;100.00
60355;BME280;46198;51.464;-0.066;2023-05-22T03:24:14;101852.69;;;12.85;100.00
60355;BME280;46198;51.464;-0.066;2023-05-22T03:26:44;101851.03;;;12.84;100.00
60355;BME280;46198;51.464;-0.066;2023-05-22T03:29:19;101848.94;;;12.86;100.00
60355;BME280;46198;51.464;-0.066;2023-05-22T03:31:47;101845.59;;;12.84;100.00
60355;BME280;46198;51.464;-0.066;2023-05-22T03:34:16;101840.13;;;12.84;100.00
60355;BME280;46198;51.464;-0.066;2023-05-22T03:36:46;101851.88;;;12.85;100.00
60355;BME280;46198;51.464;-0.066;2023-05-22T03:39:15;101843.88;;;12.83;100.00
60355;BME280;46198;51.464;-0.066;2023-05-22T03:41:54;101838.03;;;12.80;100.00
60355;BME280;46198;51.464;-0.066;2023-05-22T03:44:23;101846.00;;;12.81;100.00
60355;BME280;46198;51.464;-0.066;2023-05-22T03:46:52;101834.69;;;12.84;100.00
60355;BME280;46198;51.464;-0.066;2023-05-22T03:49:21;101835.94;;;12.82;100.00
60355;BME280;46198;51.464;-0.066;2023-05-22T03:51:49;101840.13;;;12.71;100.00
60355;BME280;46198;51.464;-0.066;2023-05-22T03:54:17;101837.19;;;12.73;100.00
60355;BME280;46198;51.464;-0.066;2023-05-22T03:56:45;101832.34;;;12.75;100.00
60355;BME280;46198;51.464;-0.066;2023-05-22T03:59:15;101833.84;;;12.71;100.00
60355;BME280;46198;51.464;-0.066;2023-05-22T04:01:43;101834.88;;;12.63;100.00
60355;BME280;46198;51.464;-0.066;2023-05-22T04:04:12;101844.31;;;12.67;100.00
60355;BME280;46198;51.464;-0.066;2023-05-22T04:06:42;101837.19;;;12.66;100.00
60355;BME280;46198;51.464;-0.066;2023-05-22T04:09:12;101834.88;;;12.63;100.00
60355;BME280;46198;51.464;-0.066;2023-05-22T04:11:40;101836.56;;;12.64;100.00
60355;BME280;46198;51.464;-0.066;2023-05-22T04:14:09;101840.97;;;12.65;100.00
60355;BME280;46198;51.464;-0.066;2023-05-22T04:16:38;101831.75;;;12.59;100.00
60355;BME280;46198;51.464;-0.066;2023-05-22T04:19:07;101843.25;;;12.48;100.00
60355;BME280;46198;51.464;-0.066;2023-05-22T04:21:35;101846.81;;;12.55;100.00
60355;BME280;46198;51.464;-0.066;2023-05-22T04:24:07;101846.81;;;12.55;100.00
60355;BME280;46198;51.464;-0.066;2023-05-22T04:26:36;101838.44;;;12.63;100.00
60355;BME280;46198;51.464;-0.066;2023-05-22T04:29:08;101851.66;;;12.60;100.00
60355;BME280;46198;51.464;-0.066;2023-05-22T04:31:42;101847.69;;;12.62;100.00
60355;BME280;46198;51.464;-0.066;2023-05-22T04:34:10;101850.63;;;12.68;100.00
60355;BME280;46198;51.464;-0.066;2023-05-22T04:36:41;101844.72;;;12.64;100.00
60355;BME280;46198;51.464;-0.066;2023-05-22T04:39:11;101853.97;;;12.63;100.00
60355;BME280;46198;51.464;-0.066;2023-05-22T04:41:40;101854.59;;;12.65;100.00
60355;BME280;46198;51.464;-0.066;2023-05-22T04:44:08;101846.41;;;12.65;100.00
60355;BME280;46198;51.464;-0.066;2023-05-22T04:46:37;101842.63;;;12.66;100.00
60355;BME280;46198;51.464;-0.066;2023-05-22T04:49:08;101851.44;;;12.68;100.00
60355;BME280;46198;51.464;-0.066;2023-05-22T04:51:37;101855.66;;;12.71;100.00
60355;BME280;46198;51.464;-0.066;2023-05-22T04:54:05;101849.13;;;12.72;100.00
60355;BME280;46198;51.464;-0.066;2023-05-22T04:56:33;101849.97;;;12.72;100.00
60355;BME280;46198;51.464;-0.066;2023-05-22T04:59:04;101847.25;;;12.72;100.00
60355;BME280;46198;51.464;-0.066;2023-05-22T05:01:36;101862.34;;;12.55;100.00
60355;BME280;46198;51.464;-0.066;2023-05-22T05:04:05;101859.59;;;12.61;100.00
60355;BME280;46198;51.464;-0.066;2023-05-22T05:06:34;101864.00;;;12.69;100.00
60355;BME280;46198;51.464;-0.066;2023-05-22T05:09:03;101861.94;;;12.71;100.00
60355;BME280;46198;51.464;-0.066;2023-05-22T05:11:34;101855.66;;;12.71;100.00
60355;BME280;46198;51.464;-0.066;2023-05-22T05:14:02;101857.72;;;12.69;100.00
60355;BME280;46198;51.464;-0.066;2023-05-22T05:16:30;101867.16;;;12.73;100.00
60355;BME280;46198;51.464;-0.066;2023-05-22T05:18:59;101868.22;;;12.72;100.00
60355;BME280;46198;51.464;-0.066;2023-05-22T05:21:28;101866.31;;;12.72;100.00
60355;BME280;46198;51.464;-0.066;2023-05-22T05:24:01;101868.66;;;12.82;100.00
60355;BME280;46198;51.464;-0.066;2023-05-22T05:26:29;101865.28;;;12.80;100.00
60355;BME280;46198;51.464;-0.066;2023-05-22T05:28:58;101868.63;;;12.75;100.00
60355;BME280;46198;51.464;-0.066;2023-05-22T05:31:34;101872.00;;;12.84;100.00
60355;BME280;46198;51.464;-0.066;2023-05-22T05:34:14;101871.16;;;12.90;100.00
60355;BME280;46198;51.464;-0.066;2023-05-22T05:37:04;101868.84;;;12.80;100.00
60355;BME280;46198;51.464;-0.066;2023-05-22T05:39:34;101865.72;;;12.90;100.00
60355;BME280;46198;51.464;-0.066;2023-05-22T05:42:05;101864.44;;;12.93;100.00
60355;BME280;46198;51.464;-0.066;2023-05-22T05:44:33;101874.50;;;12.85;100.00
60355;BME280;46198;51.464;-0.066;2023-05-22T05:47:05;101872.59;;;12.86;100.00
60355;BME280;46198;51.464;-0.066;2023-05-22T05:49:34;101862.34;;;12.95;100.00
60355;BME280;46198;51.464;-0.066;2023-05-22T05:52:04;101868.19;;;12.92;100.00
60355;BME280;46198;51.464;-0.066;2023-05-22T05:54:36;101877.88;;;12.88;100.00
60355;BME280;46198;51.464;-0.066;2023-05-22T05:57:13;101871.13;;;12.97;100.00
60355;BME280;46198;51.464;-0.066;2023-05-22T05:59:42;101870.31;;;13.03;100.00
60355;BME280;46198;51.464;-0.066;2023-05-22T06:02:29;101867.38;;;12.98;100.00
60355;BME280;46198;51.464;-0.066;2023-05-22T06:04:59;101884.13;;;13.08;100.00
60355;BME280;46198;51.464;-0.066;2023-05-22T06:07:32;101877.22;;;13.05;100.00
60355;BME280;46198;51.464;-0.066;2023-05-22T06:10:08;101875.78;;;13.03;100.00
60355;BME280;46198;51.464;-0.066;2023-05-22T06:12:49;101881.63;;;13.00;100.00
60355;BME280;46198;51.464;-0.066;2023-05-22T06:15:17;101889.59;;;13.08;100.00
60355;BME280;46198;51.464;-0.066;2023-05-22T06:17:46;101885.19;;;13.07;100.00
60355;BME280;46198;51.464;-0.066;2023-05-22T06:20:14;101882.47;;;13.14;100.00
60355;BME280;46198;51.464;-0.066;2023-05-22T06:22:43;101890.00;;;13.18;100.00
60355;BME280;46198;51.464;-0.066;2023-05-22T06:25:13;101890.22;;;13.23;100.00
60355;BME280;46198;51.464;-0.066;2023-05-22T06:27:42;101885.81;;;13.29;100.00
60355;BME280;46198;51.464;-0.066;2023-05-22T06:30:10;101895.88;;;13.35;100.00
60355;BME280;46198;51.464;-0.066;2023-05-22T06:32:45;101893.78;;;13.37;100.00
60355;BME280;46198;51.464;-0.066;2023-05-22T06:35:14;101891.28;;;13.36;100.00
60355;BME280;46198;51.464;-0.066;2023-05-22T06:37:42;101892.53;;;13.40;100.00
60355;BME280;46198;51.464;-0.066;2023-05-22T06:40:13;101898.38;;;13.43;100.00
60355;BME280;46198;51.464;-0.066;2023-05-22T06:42:56;101908.47;;;13.43;100.00
60355;BME280;46198;51.464;-0.066;2023-05-22T06:45:42;101905.94;;;13.48;100.00
60355;BME280;46198;51.464;-0.066;2023-05-22T06:48:16;101910.16;;;13.44;100.00
60355;BME280;46198;51.464;-0.066;2023-05-22T06:51:04;101914.75;;;13.63;100.00
60355;BME280;46198;51.464;-0.066;2023-05-22T06:53:34;101918.47;;;13.75;100.00
60355;BME280;46198;51.464;-0.066;2023-05-22T06:56:08;101918.47;;;13.75;100.00
60355;BME280;46198;51.464;-0.066;2023-05-22T06:58:50;101923.50;;;13.85;100.00
60355;BME280;46198;51.464;-0.066;2023-05-22T07:01:22;101916.31;;;13.91;100.00
60355;BME280;46198;51.464;-0.066;2023-05-22T07:04:03;101914.19;;;14.00;100.00
60355;BME280;46198;51.464;-0.066;2023-05-22T07:06:35;101919.41;;;14.08;100.00
60355;BME280;46198;51.464;-0.066;2023-05-22T07:09:06;101933.06;;;14.14;100.00
60355;BME280;46198;51.464;-0.066;2023-05-22T07:11:38;101934.31;;;14.12;100.00
60355;BME280;46198;51.464;-0.066;2023-05-22T07:14:08;101937.19;;;14.24;100.00
60355;BME280;46198;51.464;-0.066;2023-05-22T07:16:40;101940.38;;;14.21;100.00
60355;BME280;46198;51.464;-0.066;2023-05-22T07:19:09;101944.97;;;14.27;100.00
60355;BME280;46198;51.464;-0.066;2023-05-22T07:21:39;101947.31;;;14.16;100.00
60355;BME280;46198;51.464;-0.066;2023-05-22T07:24:09;101945.00;;;14.20;100.00
60355;BME280;46198;51.464;-0.066;2023-05-22T07:26:41;101955.25;;;14.25;100.00
60355;BME280;46198;51.464;-0.066;2023-05-22T07:29:13;101946.03;;;14.19;100.00
60355;BME280;46198;51.464;-0.066;2023-05-22T07:31:42;101963.28;;;14.19;100.00
60355;BME280;46198;51.464;-0.066;2023-05-22T07:34:11;101955.34;;;14.11;100.00
60355;BME280;46198;51.464;-0.066;2023-05-22T07:36:39;101958.91;;;14.12;100.00
60355;BME280;46198;51.464;-0.066;2023-05-22T07:39:08;101956.38;;;14.10;100.00
60355;BME280;46198;51.464;-0.066;2023-05-22T07:41:39;101964.13;;;14.13;100.00
60355;BME280;46198;51.464;-0.066;2023-05-22T07:44:12;101958.66;;;14.13;100.00
60355;BME280;46198;51.464;-0.066;2023-05-22T07:46:41;101956.38;;;14.10;100.00
60355;BME280;46198;51.464;-0.066;2023-05-22T07:49:13;101959.09;;;14.10;100.00
60355;BME280;46198;51.464;-0.066;2023-05-22T07:51:46;101955.69;;;14.22;100.00
60355;BME280;46198;51.464;-0.066;2023-05-22T07:54:16;101955.69;;;14.28;100.00
60355;BME280;46198;51.464;-0.066;2023-05-22T07:56:48;101949.72;;;14.38;100.00
60355;BME280;46198;51.464;-0.066;2023-05-22T07:59:19;101963.13;;;14.46;100.00
60355;BME280;46198;51.464;-0.066;2023-05-22T08:01:49;101954.50;;;14.49;100.00
60355;BME280;46198;51.464;-0.066;2023-05-22T08:04:17;101952.16;;;14.59;100.00
60355;BME280;46198;51.464;-0.066;2023-05-22T08:06:46;101960.53;;;14.71;100.00
60355;BME280;46198;51.464;-0.066;2023-05-22T08:09:17;101957.94;;;14.76;100.00
60355;BME280;46198;51.464;-0.066;2023-05-22T08:11:47;101957.31;;;14.81;100.00
60355;BME280;46198;51.464;-0.066;2023-05-22T08:14:16;101953.25;;;14.90;100.00
60355;BME280;46198;51.464;-0.066;2023-05-22T08:16:45;101950.63;;;15.02;100.00
60355;BME280;46198;51.464;-0.066;2023-05-22T08:19:14;101966.25;;;14.95;100.00
60355;BME280;46198;51.464;-0.066;2023-05-22T08:21:42;101957.47;;;14.86;99.74
60355;BME280;46198;51.464;-0.066;2023-05-22T08:24:10;101955.81;;;14.85;97.85
60355;BME280;46198;51.464;-0.066;2023-05-22T08:26:39;101959.13;;;14.87;100.00
60355;BME280;46198;51.464;-0.066;2023-05-22T08:29:09;101963.38;;;14.83;97.49
60355;BME280;46198;51.464;-0.066;2023-05-22T08:31:38;101963.75;;;14.93;98.08
60355;BME280;46198;51.464;-0.066;2023-05-22T08:34:07;101968.78;;;14.96;99.80
60355;BME280;46198;51.464;-0.066;2023-05-22T08:36:37;101971.69;;;15.01;99.46
60355;BME280;46198;51.464;-0.066;2023-05-22T08:39:05;101966.25;;;14.95;95.56
60355;BME280;46198;51.464;-0.066;2023-05-22T08:41:35;101967.50;;;14.99;94.35
60355;BME280;46198;51.464;-0.066;2023-05-22T08:44:03;101976.28;;;15.01;97.72
60355;BME280;46198;51.464;-0.066;2023-05-22T08:46:32;101967.66;;;15.04;95.37
60355;BME280;46198;51.464;-0.066;2023-05-22T08:49:04;101981.81;;;14.94;97.29
60355;BME280;46198;51.464;-0.066;2023-05-22T08:51:37;101974.06;;;14.91;98.01
60355;BME280;46198;51.464;-0.066;2023-05-22T08:54:06;101974.69;;;14.93;96.14
60355;BME280;46198;51.464;-0.066;2023-05-22T08:56:35;101984.81;;;14.86;93.50
60355;BME280;46198;51.464;-0.066;2023-05-22T08:59:19;101974.50;;;14.88;95.57
60355;BME280;46198;51.464;-0.066;2023-05-22T09:01:48;101981.28;;;14.79;94.92
60355;BME280;46198;51.464;-0.066;2023-05-22T09:04:18;101987.00;;;14.77;92.25
60355;BME280;46198;51.464;-0.066;2023-05-22T09:06:52;101989.97;;;14.69;96.50
60355;BME280;46198;51.464;-0.066;2023-05-22T09:09:21;102001.81;;;14.50;95.11
60355;BME280;46198;51.464;-0.066;2023-05-22T09:11:49;101998.88;;;14.58;96.09
60355;BME280;46198;51.464;-0.066;2023-05-22T09:14:18;101991.31;;;14.53;97.09
60355;BME280;46198;51.464;-0.066;2023-05-22T09:16:48;101984.56;;;14.49;96.58
60355;BME280;46198;51.464;-0.066;2023-05-22T09:19:19;101986.47;;;14.55;97.93
60355;BME280;46198;51.464;-0.066;2023-05-22T09:21:47;101991.28;;;14.60;96.13
60355;BME280;46198;51.464;-0.066;2023-05-22T09:24:18;101990.00;;;14.62;94.82
60355;BME280;46198;51.464;-0.066;2023-05-22T09:26:46;101995.44;;;14.69;95.35
60355;BME280;46198;51.464;-0.066;2023-05-22T09:29:15;101996.31;;;14.63;97.66
60355;BME280;46198;51.464;-0.066;2023-05-22T09:31:43;101991.72;;;14.50;95.81
60355;BME280;46198;51.464;-0.066;2023-05-22T09:34:16;101997.19;;;14.50;97.10
60355;BME280;46198;51.464;-0.066;2023-05-22T09:36:44;102002.00;;;14.61;94.35
60355;BME280;46198;51.464;-0.066;2023-05-22T09:39:13;101996.78;;;14.53;98.13
60355;BME280;46198;51.464;-0.066;2023-05-22T09:41:43;101989.56;;;14.66;96.78
60355;BME280;46198;51.464;-0.066;2023-05-22T09:44:12;101988.28;;;14.68;96.69
60355;BME280;46198;51.464;-0.066;2023-05-22T09:46:41;101994.56;;;14.75;93.80
60355;BME280;46198;51.464;-0.066;2023-05-22T09:49:09;101989.16;;;14.69;96.35
60355;BME280;46198;51.464;-0.066;2023-05-22T09:51:43;101991.63;;;14.77;93.52
60355;BME280;46198;51.464;-0.066;2023-05-22T09:54:15;101995.63;;;14.74;94.32
60355;BME280;46198;51.464;-0.066;2023-05-22T09:56:47;101995.97;;;14.84;92.63
60355;BME280;46198;51.464;-0.066;2023-05-22T09:59:19;101985.88;;;14.85;93.28
60355;BME280;46198;51.464;-0.066;2023-05-22T10:01:49;101985.63;;;14.93;94.98
60355;BME280;46198;51.464;-0.066;2023-05-22T10:04:20;101983.72;;;14.94;87.66
60355;BME280;46198;51.464;-0.066;2023-05-22T10:06:50;101978.81;;;15.02;91.30
60355;BME280;46198;51.464;-0.066;2023-05-22T10:09:22;101969.53;;;15.03;87.16
60355;BME280;46198;51.464;-0.066;2023-05-22T10:11:54;101978.38;;;15.05;86.92
60355;BME280;46198;51.464;-0.066;2023-05-22T10:14:25;101979.16;;;15.13;87.20
60355;BME280;46198;51.464;-0.066;2023-05-22T10:16:56;101982.09;;;15.18;88.23
60355;BME280;46198;51.464;-0.066;2023-05-22T10:19:28;101985.84;;;15.17;86.92
60355;BME280;46198;51.464;-0.066;2023-05-22T10:21:59;101986.53;;;15.37;87.45
60355;BME280;46198;51.464;-0.066;2023-05-22T10:24:27;101993.59;;;15.26;81.92
60355;BME280;46198;51.464;-0.066;2023-05-22T10:26:58;101989.13;;;15.32;84.27
60355;BME280;46198;51.464;-0.066;2023-05-22T10:29:36;101991.28;;;15.23;83.88
60355;BME280;46198;51.464;-0.066;2023-05-22T10:32:17;101991.78;;;15.39;79.72
60355;BME280;46198;51.464;-0.066;2023-05-22T10:34:59;101995.84;;;15.55;80.31
60355;BME280;46198;51.464;-0.066;2023-05-22T10:37:41;101987.75;;;15.66;78.90
60355;BME280;46198;51.464;-0.066;2023-05-22T10:40:12;101987.50;;;15.75;78.30
60355;BME280;46198;51.464;-0.066;2023-05-22T10:42:43;101981.03;;;15.87;77.10
60355;BME280;46198;51.464;-0.066;2023-05-22T10:45:12;101985.50;;;15.82;75.61
60355;BME280;46198;51.464;-0.066;2023-05-22T10:47:41;101983.41;;;16.02;82.81
60355;BME280;46198;51.464;-0.066;2023-05-22T10:50:10;101993.91;;;16.05;74.29
60355;BME280;46198;51.464;-0.066;2023-05-22T10:52:38;101979.91;;;15.95;71.04
60355;BME280;46198;51.464;-0.066;2023-05-22T10:55:08;101990.19;;;16.00;71.66
60355;BME280;46198;51.464;-0.066;2023-05-22T10:57:37;101978.31;;;16.06;73.98
60355;BME280;46198;51.464;-0.066;2023-05-22T11:00:10;101982.19;;;16.16;70.56
60355;BME280;46198;51.464;-0.066;2023-05-22T11:02:41;101979.66;;;16.33;73.15
60355;BME280;46198;51.464;-0.066;2023-05-22T11:05:32;101976.06;;;16.51;72.97
60355;BME280;46198;51.464;-0.066;2023-05-22T11:08:11;101972.63;;;16.56;72.89
60355;BME280;46198;51.464;-0.066;2023-05-22T11:11:09;101976.41;;;16.55;67.58
60355;BME280;46198;51.464;-0.066;2023-05-22T11:13:38;101985.78;;;16.47;67.16
60355;BME280;46198;51.464;-0.066;2023-05-22T11:16:09;101985.56;;;16.49;69.27
60355;BME280;46198;51.464;-0.066;2023-05-22T11:18:38;101979.44;;;16.65;69.89
60355;BME280;46198;51.464;-0.066;2023-05-22T11:21:09;101985.13;;;16.33;70.03
60355;BME280;46198;51.464;-0.066;2023-05-22T11:23:38;101985.59;;;16.30;69.15
60355;BME280;46198;51.464;-0.066;2023-05-22T11:26:17;101993.81;;;16.30;71.17
60355;BME280;46198;51.464;-0.066;2023-05-22T11:28:50;101992.69;;;16.20;69.94
60355;BME280;46198;51.464;-0.066;2023-05-22T11:31:20;101996.13;;;16.15;69.12
60355;BME280;46198;51.464;-0.066;2023-05-22T11:33:52;101989.63;;;16.09;68.08
60355;BME280;46198;51.464;-0.066;2023-05-22T11:36:22;101988.78;;;15.90;69.00
60355;BME280;46198;51.464;-0.066;2023-05-22T11:38:56;101985.50;;;15.82;70.25
60355;BME280;46198;51.464;-0.066;2023-05-22T11:41:29;101979.00;;;15.83;69.58
60355;BME280;46198;51.464;-0.066;2023-05-22T11:44:00;101976.84;;;15.85;69.05
60355;BME280;46198;51.464;-0.066;2023-05-22T11:46:29;101980.13;;;15.93;68.52
60355;BME280;46198;51.464;-0.066;2023-05-22T11:48:58;101988.66;;;15.85;68.14
60355;BME280;46198;51.464;-0.066;2023-05-22T11:51:26;101983.94;;;15.92;66.24
60355;BME280;46198;51.464;-0.066;2023-05-22T11:53:56;101981.28;;;16.04;67.22
60355;BME280;46198;51.464;-0.066;2023-05-22T11:56:24;101979.75;;;16.08;67.44
60355;BME280;46198;51.464;-0.066;2023-05-22T11:58:52;101979.53;;;16.10;65.81
60355;BME280;46198;51.464;-0.066;2023-05-22T12:01:21;101977.84;;;16.09;65.96
60355;BME280;46198;51.464;-0.066;2023-05-22T12:03:51;101980.44;;;16.22;66.83
60355;BME280;46198;51.464;-0.066;2023-05-22T12:06:20;101987.50;;;16.11;66.10
60355;BME280;46198;51.464;-0.066;2023-05-22T12:08:48;101989.47;;;16.23;65.96
60355;BME280;46198;51.464;-0.066;2023-05-22T12:11:17;101986.97;;;16.21;67.28
60355;BME280;46198;51.464;-0.066;2023-05-22T12:13:48;101986.22;;;16.32;68.28
60355;BME280;46198;51.464;-0.066;2023-05-22T12:16:18;101985.88;;;16.40;67.02
60355;BME280;46198;51.464;-0.066;2023-05-22T12:18:52;101983.28;;;16.46;65.62
60355;BME280;46198;51.464;-0.066;2023-05-22T12:21:21;101990.84;;;16.50;66.37
60355;BME280;46198;51.464;-0.066;2023-05-22T12:23:50;101983.13;;;16.59;66.41
60355;BME280;46198;51.464;-0.066;2023-05-22T12:26:18;101973.84;;;16.72;69.88
60355;BME280;46198;51.464;-0.066;2023-05-22T12:28:47;101974.56;;;16.86;68.08
60355;BME280;46198;51.464;-0.066;2023-05-22T12:31:19;101969.06;;;16.86;67.33
60355;BME280;46198;51.464;-0.066;2023-05-22T12:33:53;101970.03;;;16.91;65.45
60355;BME280;46198;51.464;-0.066;2023-05-22T12:36:30;101975.28;;;16.93;66.32
60355;BME280;46198;51.464;-0.066;2023-05-22T12:38:59;101973.34;;;16.93;65.60
60355;BME280;46198;51.464;-0.066;2023-05-22T12:41:27;101980.88;;;16.98;66.14
60355;BME280;46198;51.464;-0.066;2023-05-22T12:43:56;101982.66;;;16.92;65.74
60355;BME280;46198;51.464;-0.066;2023-05-22T12:46:24;101977.06;;;16.99;66.31
60355;BME280;46198;51.464;-0.066;2023-05-22T12:48:54;101966.22;;;16.92;65.22
60355;BME280;46198;51.464;-0.066;2023-05-22T12:51:24;101970.59;;;16.81;66.79